Jeppesen Maersk — OWTW2 — position and weather

sailwx.info

Track history (hours):
 
Tides and Currents Weather Stations Pressure Air Temp Water Temp Dewpoint Dewpoint Depression Visibility Wind Speed Wind Dir Waves Ship Positions

Jeppesen Maersk

Last reported at 2015-Jul-03 06:00 UTC. Time now 2015-Jul-05 21:07 UTC.
Position S 27°54' E 161°18'.

Type: Ship (hazmat cat A). MMSI: 219953000.

Wind from 230 at 35 knots

Barometer 1011.4 mb
Air temperature 18.5 ° C
Visibility: greater than 10.8 NM
Dewpoint 10.1 ° C

Date/timePositionNaut miles runAvg speedWind from/ knotsBaromVisibWave heightAir tempDewpointWater temp
2015-Jul-03 06:00S 27°54' E 161°18'8814.7 230 / 351011.410.8 18.510.1
2015-Jul-03 00:00S 28°42' E 162°42'76815.2 260 / 121011.710.8 18.013.6
2015-Jun-30 21:33S 36°12' E 174°59'1616.3
2015-Jun-30 20:33S 36°29' E 175°00'1515.2
2015-Jun-30 19:33S 36°43' E 174°52'9 8.9
2015-Jun-30 18:34S 36°50' E 174°47'0 0.4
2015-Jun-30 17:32S 36°51' E 174°47'0 0.0
2015-Jun-30 16:28S 36°51' E 174°47'0 0.0
2015-Jun-30 15:28S 36°51' E 174°47'0 0.0
2015-Jun-30 14:32S 36°51' E 174°47'0 0.0
2015-Jun-30 13:28S 36°51' E 174°47'0 0.0
2015-Jun-30 12:29S 36°51' E 174°47'0 0.0
2015-Jun-30 11:28S 36°51' E 174°47'0 0.0
2015-Jun-30 10:28S 36°51' E 174°47'0 0.0
2015-Jun-30 09:33S 36°51' E 174°47'0 0.0
2015-Jun-30 08:33S 36°51' E 174°47'0 0.0
2015-Jun-30 07:33S 36°51' E 174°47'6 6.1
2015-Jun-30 06:34S 36°45' E 174°50'8 8.4
2015-Jun-30 05:33S 36°38' E 174°56'2 1.6
2015-Jun-30 04:33S 36°37' E 174°58'4 3.6
2015-Jun-30 03:33S 36°35' E 175°01'1111.2
2015-Jun-30 02:33S 36°28' E 175°12'  
Track history (hours):
 
Tides and Currents Weather Stations Pressure Air Temp Water Temp Dewpoint Dewpoint Depression Visibility Wind Speed Wind Dir Waves Ship Positions

Jeppesen Maersk

Last reported at 2015-Jul-03 06:00 UTC. Time now 2015-Jul-05 21:07 UTC.
Position S 27°54' E 161°18'.

Type: Ship (hazmat cat A). MMSI: 219953000.

Wind from 230 at 35 knots

Barometer 1011.4 mb
Air temperature 18.5 ° C
Visibility: greater than 10.8 NM
Dewpoint 10.1 ° C

Date/timePositionNaut miles runAvg speedWind from/ knotsBaromVisibWave heightAir tempDewpointWater temp
2015-Jul-03 06:00S 27°54' E 161°18'8814.7 230 / 351011.410.8 18.510.1
2015-Jul-03 00:00S 28°42' E 162°42'76815.2 260 / 121011.710.8 18.013.6
2015-Jun-30 21:33S 36°12' E 174°59'1616.3
2015-Jun-30 20:33S 36°29' E 175°00'1515.2
2015-Jun-30 19:33S 36°43' E 174°52'9 8.9
2015-Jun-30 18:34S 36°50' E 174°47'0 0.4
2015-Jun-30 17:32S 36°51' E 174°47'0 0.0
2015-Jun-30 16:28S 36°51' E 174°47'0 0.0
2015-Jun-30 15:28S 36°51' E 174°47'0 0.0
2015-Jun-30 14:32S 36°51' E 174°47'0 0.0
2015-Jun-30 13:28S 36°51' E 174°47'0 0.0
2015-Jun-30 12:29S 36°51' E 174°47'0 0.0
2015-Jun-30 11:28S 36°51' E 174°47'0 0.0
2015-Jun-30 10:28S 36°51' E 174°47'0 0.0
2015-Jun-30 09:33S 36°51' E 174°47'0 0.0
2015-Jun-30 08:33S 36°51' E 174°47'0 0.0
2015-Jun-30 07:33S 36°51' E 174°47'6 6.1
2015-Jun-30 06:34S 36°45' E 174°50'8 8.4
2015-Jun-30 05:33S 36°38' E 174°56'2 1.6
2015-Jun-30 04:33S 36°37' E 174°58'4 3.6
2015-Jun-30 03:33S 36°35' E 175°01'1111.2
2015-Jun-30 02:33S 36°28' E 175°12'  

Dump ship's entire track history